createdAt,value
2018-03-23T00:01:48.234Z,5.60
2018-03-23T00:04:14.567Z,3.73
2018-03-23T00:06:40.778Z,4.70
2018-03-23T00:09:07.071Z,4.13
2018-03-23T00:11:34.051Z,3.90
2018-03-23T00:14:00.335Z,5.23
2018-03-23T00:16:27.382Z,3.70
2018-03-23T00:18:54.351Z,5.27
2018-03-23T00:21:21.409Z,3.17
2018-03-23T00:23:48.447Z,4.03
2018-03-23T00:26:14.728Z,4.73
2018-03-23T00:28:41.036Z,3.53
2018-03-23T00:31:07.431Z,4.30
2018-03-23T00:33:34.531Z,5.20
2018-03-23T00:36:00.786Z,4.70
2018-03-23T00:38:27.800Z,4.73
2018-03-23T00:40:54.780Z,5.00
2018-03-23T00:43:21.024Z,5.57
2018-03-23T00:45:47.251Z,3.90
2018-03-23T00:48:14.332Z,3.60
2018-03-23T00:50:40.553Z,6.00
2018-03-23T00:53:07.299Z,3.83
2018-03-23T00:55:33.527Z,4.77
2018-03-23T00:57:59.846Z,7.50
2018-03-23T01:00:26.105Z,8.30
2018-03-23T01:02:52.511Z,10.93
2018-03-23T01:05:18.820Z,5.07
2018-03-23T01:07:45.316Z,5.87
2018-03-23T01:10:11.545Z,11.17
2018-03-23T01:12:37.763Z,5.30
2018-03-23T01:15:04.950Z,6.33
2018-03-23T01:17:31.206Z,6.57
2018-03-23T01:19:57.470Z,6.00
2018-03-23T01:22:24.474Z,8.63
2018-03-23T01:24:50.694Z,6.50
2018-03-23T01:27:17.040Z,7.53
2018-03-23T01:29:43.322Z,9.17
2018-03-23T01:32:10.074Z,7.10
2018-03-23T01:34:36.368Z,7.80
2018-03-23T01:37:02.685Z,9.10
2018-03-23T01:39:28.919Z,6.87
2018-03-23T01:41:55.578Z,9.33
2018-03-23T01:44:22.691Z,10.30
2018-03-23T01:46:48.918Z,12.10
2018-03-23T01:49:15.295Z,13.50
2018-03-23T01:51:41.604Z,9.20
2018-03-23T01:54:08.596Z,8.97
2018-03-23T01:56:35.781Z,12.43
2018-03-23T01:59:02.071Z,14.23
2018-03-23T02:01:28.317Z,10.73
2018-03-23T02:03:54.650Z,15.60
2018-03-23T02:06:20.874Z,12.47
2018-03-23T02:08:47.122Z,15.97
2018-03-23T02:11:13.331Z,12.70
2018-03-23T02:13:39.667Z,12.67
2018-03-23T02:16:05.965Z,11.83
2018-03-23T02:18:32.173Z,15.27
2018-03-23T02:20:59.144Z,15.17
2018-03-23T02:23:25.418Z,15.03
2018-03-23T02:25:51.670Z,15.17
2018-03-23T02:28:17.926Z,15.63
2018-03-23T02:30:44.178Z,17.90
2018-03-23T02:33:10.512Z,17.37
2018-03-23T02:35:36.740Z,16.50
2018-03-23T02:38:03.440Z,16.50
2018-03-23T02:40:30.408Z,18.27
2018-03-23T02:42:57.416Z,16.27
2018-03-23T02:45:23.804Z,15.43
2018-03-23T02:47:50.100Z,18.70
2018-03-23T02:50:16.456Z,19.77
2018-03-23T02:52:42.887Z,22.80
2018-03-23T02:55:09.598Z,19.50
2018-03-23T02:57:35.828Z,22.53
2018-03-23T03:00:02.075Z,19.60
2018-03-23T03:02:28.333Z,21.20
2018-03-23T03:04:54.574Z,20.53
2018-03-23T03:07:21.673Z,18.30
2018-03-23T03:09:47.925Z,21.37
2018-03-23T03:12:14.297Z,19.13
2018-03-23T03:14:41.278Z,19.67
2018-03-23T03:17:07.493Z,23.77
2018-03-23T03:19:33.734Z,18.57
2018-03-23T03:21:59.970Z,16.60
2018-03-23T03:24:26.211Z,20.03
2018-03-23T03:26:52.475Z,20.47
2018-03-23T03:29:18.730Z,20.90
2018-03-23T03:31:44.942Z,21.40
2018-03-23T03:34:11.312Z,18.63
2018-03-23T03:36:37.577Z,19.50
2018-03-23T03:39:04.607Z,22.40
2018-03-23T03:41:30.835Z,23.23
2018-03-23T03:43:57.077Z,29.70
2018-03-23T03:46:23.331Z,25.43
2018-03-23T03:48:49.552Z,24.13
2018-03-23T03:51:15.766Z,24.10
2018-03-23T03:53:42.018Z,21.33
2018-03-23T03:56:08.277Z,23.90
2018-03-23T03:58:35.272Z,23.63
2018-03-23T04:01:01.495Z,24.53
2018-03-23T04:03:27.709Z,22.00
2018-03-23T04:05:54.250Z,29.40
2018-03-23T04:08:20.477Z,27.13
2018-03-23T04:10:46.685Z,23.47
2018-03-23T04:13:13.733Z,26.37
2018-03-23T04:15:40.687Z,28.77
2018-03-23T04:18:07.651Z,25.77
2018-03-23T04:20:33.994Z,25.03
2018-03-23T04:23:00.365Z,22.40
2018-03-23T04:25:26.569Z,25.10
2018-03-23T04:27:52.862Z,27.10
2018-03-23T04:30:19.394Z,31.27
2018-03-23T04:32:45.713Z,30.67
2018-03-23T04:35:12.714Z,21.73
2018-03-23T04:37:38.929Z,32.33
2018-03-23T04:40:05.155Z,25.43
2018-03-23T04:42:31.379Z,24.70
2018-03-23T04:44:57.630Z,31.87
2018-03-23T04:47:24.618Z,27.87
2018-03-23T04:49:50.979Z,22.63
2018-03-23T04:52:17.475Z,26.27
2018-03-23T04:54:43.719Z,25.53
2018-03-23T04:57:10.057Z,27.23
2018-03-23T04:59:36.334Z,27.30
2018-03-23T05:02:02.647Z,23.40
2018-03-23T05:04:28.910Z,25.60
2018-03-23T05:06:55.140Z,24.33
2018-03-23T05:09:21.379Z,23.10
2018-03-23T05:11:48.343Z,23.27
2018-03-23T05:14:15.578Z,27.90
2018-03-23T05:16:41.905Z,21.17
2018-03-23T05:19:08.163Z,26.90
2018-03-23T05:21:35.158Z,28.23
2018-03-23T05:24:02.184Z,25.47
2018-03-23T05:26:28.439Z,24.37
2018-03-23T05:28:54.687Z,32.73
2018-03-23T05:31:21.031Z,26.33
2018-03-23T05:33:48.012Z,27.33
2018-03-23T05:36:14.286Z,32.47
2018-03-23T05:38:40.695Z,23.17
2018-03-23T05:41:06.946Z,33.37
2018-03-23T05:43:33.310Z,30.57
2018-03-23T05:46:00.698Z,40.93
2018-03-23T05:48:26.976Z,44.73
2018-03-23T05:50:53.336Z,36.33
2018-03-23T05:53:19.658Z,32.10
2018-03-23T05:55:46.694Z,31.73
2018-03-23T05:58:13.048Z,35.17
2018-03-23T06:00:40.077Z,31.73
2018-03-23T06:03:06.410Z,32.57
2018-03-23T06:05:32.760Z,27.50
2018-03-23T06:07:59.248Z,28.27
2018-03-23T06:10:25.852Z,28.03
2018-03-23T06:12:52.101Z,32.00
2018-03-23T06:15:18.335Z,30.37
2018-03-23T06:17:44.554Z,26.63
2018-03-23T06:20:10.769Z,28.90
2018-03-23T06:22:37.066Z,27.00
2018-03-23T06:25:03.311Z,24.47
2018-03-23T06:27:30.270Z,25.70
2018-03-23T06:29:56.518Z,29.77
2018-03-23T06:32:22.786Z,33.03
2018-03-23T06:34:49.085Z,26.77
2018-03-23T06:37:15.367Z,30.87
2018-03-23T06:39:42.338Z,26.20
2018-03-23T06:42:08.572Z,30.03
2018-03-23T06:44:35.715Z,32.70
2018-03-23T06:47:02.681Z,22.40
2018-03-23T06:49:29.843Z,30.30
2018-03-23T06:51:56.169Z,28.80
2018-03-23T06:54:22.406Z,31.97
2018-03-23T06:56:48.632Z,34.20
2018-03-23T06:59:14.890Z,26.77
2018-03-23T07:01:41.120Z,27.70
2018-03-23T07:04:07.372Z,27.90
2018-03-23T07:06:33.682Z,32.10
2018-03-23T07:08:59.897Z,35.67
2018-03-23T07:11:26.182Z,35.73
2018-03-23T07:13:53.489Z,37.47
2018-03-23T07:16:20.192Z,35.90
2018-03-23T07:18:46.431Z,33.57
2018-03-23T07:21:12.677Z,36.13
2018-03-23T07:23:38.942Z,36.10
2018-03-23T07:26:05.172Z,34.73
2018-03-23T07:28:31.407Z,31.97
2018-03-23T07:30:57.657Z,34.30
2018-03-23T07:33:24.702Z,35.93
2018-03-23T07:35:52.135Z,33.70
2018-03-23T07:38:18.492Z,30.27
2018-03-23T07:40:45.600Z,31.33
2018-03-23T07:43:11.824Z,34.97
2018-03-23T07:45:38.135Z,30.03
2018-03-23T07:48:04.355Z,26.53
2018-03-23T07:50:30.718Z,28.60
2018-03-23T07:52:56.997Z,30.33
2018-03-23T07:55:23.953Z,37.30
2018-03-23T07:57:50.166Z,39.27
2018-03-23T08:00:17.140Z,30.07
2018-03-23T08:02:43.383Z,34.37
2018-03-23T08:05:09.919Z,27.70
2018-03-23T08:07:36.171Z,35.27
2018-03-23T08:10:02.478Z,41.13
2018-03-23T08:12:28.695Z,30.03
2018-03-23T08:14:55.150Z,38.40
2018-03-23T08:17:22.242Z,29.27
2018-03-23T08:19:48.482Z,36.97
2018-03-23T08:22:15.562Z,41.37
2018-03-23T08:24:41.846Z,44.30
2018-03-23T08:27:08.091Z,33.60
2018-03-23T08:29:35.041Z,40.17
2018-03-23T08:32:02.001Z,47.93
2018-03-23T08:34:28.269Z,46.90
2018-03-23T08:36:54.647Z,32.17
2018-03-23T08:39:21.978Z,39.97
2018-03-23T08:41:48.612Z,45.23
2018-03-23T08:44:14.785Z,46.27
2018-03-23T08:46:41.062Z,39.57
2018-03-23T08:49:07.299Z,41.13
2018-03-23T08:51:33.509Z,41.33
2018-03-23T08:54:00.449Z,44.70
2018-03-23T08:56:26.745Z,44.20
2018-03-23T08:58:52.967Z,39.27
2018-03-23T09:01:20.073Z,39.53
2018-03-23T09:03:46.284Z,49.83
2018-03-23T09:06:12.950Z,38.50
2018-03-23T09:08:39.276Z,28.10
2018-03-23T09:11:05.590Z,35.80
2018-03-23T09:13:31.831Z,33.70
2018-03-23T09:15:58.102Z,30.57
2018-03-23T09:18:25.050Z,35.23
2018-03-23T09:20:52.202Z,32.10
2018-03-23T09:23:19.171Z,32.13
2018-03-23T09:25:45.389Z,34.23
2018-03-23T09:28:14.561Z,32.53
2018-03-23T09:30:41.549Z,36.07
2018-03-23T09:33:07.888Z,35.47
2018-03-23T09:35:34.184Z,33.33
2018-03-23T09:38:01.193Z,34.63
2018-03-23T09:40:27.422Z,32.37
2018-03-23T09:42:54.642Z,35.27
2018-03-23T09:45:20.997Z,34.17
2018-03-23T09:47:47.203Z,32.00
2018-03-23T09:50:13.455Z,29.77
2018-03-23T09:52:39.667Z,32.27
2018-03-23T09:55:06.050Z,23.87
2018-03-23T09:57:32.997Z,29.23
2018-03-23T10:00:00.030Z,30.67
2018-03-23T10:02:26.257Z,25.33
2018-03-23T10:04:52.498Z,30.03
2018-03-23T10:07:19.524Z,29.27
2018-03-23T10:09:45.771Z,34.70
2018-03-23T10:12:13.050Z,26.03
2018-03-23T10:14:39.328Z,26.37
2018-03-23T10:17:05.684Z,27.60
2018-03-23T10:19:31.899Z,24.30
2018-03-23T10:21:58.182Z,27.90
2018-03-23T10:24:24.479Z,27.47
2018-03-23T10:26:51.644Z,23.63
2018-03-23T10:29:18.593Z,26.17
2018-03-23T10:31:55.676Z,26.87
2018-03-23T10:34:22.795Z,27.40
2018-03-23T10:36:49.201Z,37.13
2018-03-23T10:39:15.548Z,28.53
2018-03-23T10:41:41.788Z,29.57
2018-03-23T10:44:08.130Z,26.40
2018-03-23T10:46:34.353Z,27.00
2018-03-23T10:49:00.582Z,29.57
2018-03-23T10:51:26.845Z,27.00
2018-03-23T10:53:53.053Z,34.03
2018-03-23T10:56:20.394Z,26.20
2018-03-23T10:58:46.703Z,28.70
2018-03-23T11:01:19.135Z,28.00
2018-03-23T11:03:45.369Z,32.07
2018-03-23T11:06:11.615Z,28.80
2018-03-23T11:08:37.844Z,24.10
2018-03-23T11:11:04.040Z,26.20
2018-03-23T11:13:31.111Z,27.70
2018-03-23T11:15:57.474Z,32.40
2018-03-23T11:18:23.772Z,25.03
2018-03-23T11:20:50.076Z,25.70
2018-03-23T11:23:17.202Z,23.30
2018-03-23T11:25:43.439Z,26.50
2018-03-23T11:28:09.774Z,28.67
2018-03-23T11:30:36.038Z,33.73
2018-03-23T11:33:02.394Z,25.40
2018-03-23T11:35:28.666Z,21.50
2018-03-23T11:37:54.913Z,25.00
2018-03-23T11:40:21.874Z,23.47
2018-03-23T11:42:48.279Z,31.70
2018-03-23T11:45:15.111Z,28.37
2018-03-23T11:47:41.407Z,26.13
2018-03-23T11:50:07.653Z,30.27
2018-03-23T11:52:33.902Z,20.80
2018-03-23T11:55:00.181Z,28.13
2018-03-23T11:57:26.393Z,24.70
2018-03-23T11:59:52.648Z,27.83
2018-03-23T12:02:18.871Z,29.10
2018-03-23T12:04:45.100Z,26.70
2018-03-23T12:07:12.483Z,26.20
2018-03-23T12:09:38.892Z,30.07
2018-03-23T12:12:05.156Z,30.67
2018-03-23T12:14:31.474Z,35.17
2018-03-23T12:16:57.738Z,29.60
2018-03-23T12:19:24.714Z,28.30
2018-03-23T12:21:51.046Z,29.60
2018-03-23T12:24:17.347Z,37.37
2018-03-23T12:26:44.643Z,41.63
2018-03-23T12:29:10.865Z,39.73
2018-03-23T12:31:37.170Z,30.43
2018-03-23T12:34:03.481Z,37.90
2018-03-23T12:36:30.587Z,34.30
2018-03-23T12:38:56.905Z,35.50
2018-03-23T12:41:23.166Z,44.90
2018-03-23T12:43:49.576Z,37.97
2018-03-23T12:46:15.831Z,40.90
2018-03-23T12:48:42.278Z,43.83
2018-03-23T12:51:08.490Z,38.37
2018-03-23T12:53:34.762Z,42.40
2018-03-23T12:56:01.193Z,40.10
2018-03-23T12:58:28.200Z,42.23
2018-03-23T13:00:54.442Z,38.20
2018-03-23T13:03:20.661Z,39.13
2018-03-23T13:05:46.886Z,39.87
2018-03-23T13:08:13.148Z,40.83
2018-03-23T13:10:40.212Z,42.40
2018-03-23T13:13:06.431Z,43.57
2018-03-23T13:15:33.475Z,40.67
2018-03-23T13:18:00.488Z,45.50
2018-03-23T13:20:26.756Z,44.23
2018-03-23T13:22:53.887Z,39.30
2018-03-23T13:25:20.161Z,43.77
2018-03-23T13:27:46.372Z,49.27
2018-03-23T13:30:13.355Z,46.43
2018-03-23T13:32:39.745Z,50.97
2018-03-23T13:35:06.013Z,44.53
2018-03-23T13:37:32.448Z,49.87
2018-03-23T13:39:58.692Z,50.97
2018-03-23T13:42:24.938Z,48.50
2018-03-23T13:44:51.166Z,40.03
2018-03-23T13:47:17.394Z,46.97
2018-03-23T13:49:43.615Z,44.73
2018-03-23T13:52:10.228Z,45.77
2018-03-23T13:54:36.510Z,40.73
2018-03-23T13:57:02.791Z,46.63
2018-03-23T14:02:26.693Z,46.50
2018-03-23T14:04:53.009Z,52.23
2018-03-23T14:07:19.247Z,60.77
2018-03-23T14:09:45.522Z,48.53
2018-03-23T14:12:11.797Z,49.57
2018-03-23T14:14:38.101Z,49.80
2018-03-23T14:17:05.076Z,53.67
2018-03-23T14:19:31.453Z,44.13
2018-03-23T14:21:57.679Z,54.53
2018-03-23T14:24:23.989Z,50.57
2018-03-23T14:26:50.214Z,49.07
2018-03-23T14:29:16.444Z,52.50
2018-03-23T14:31:42.851Z,49.63
2018-03-23T14:34:09.122Z,50.10
2018-03-23T14:36:35.354Z,56.43
2018-03-23T14:39:01.654Z,55.20
2018-03-23T14:41:27.893Z,59.30
2018-03-23T14:43:54.211Z,59.77
2018-03-23T14:46:20.417Z,51.30
2018-03-23T14:48:47.427Z,51.63
2018-03-23T14:51:13.798Z,53.67
2018-03-23T14:53:39.996Z,53.93
2018-03-23T14:56:06.638Z,61.43
2018-03-23T14:58:39.041Z,56.63
2018-03-23T15:01:05.255Z,61.87
2018-03-23T15:03:32.238Z,56.17
2018-03-23T15:05:58.548Z,60.07
2018-03-23T15:08:25.635Z,56.67
2018-03-23T15:10:51.928Z,69.90
2018-03-23T15:13:18.199Z,62.27
2018-03-23T15:15:44.531Z,54.17
2018-03-23T15:18:10.766Z,60.70
2018-03-23T15:20:37.062Z,67.93
2018-03-23T15:23:03.666Z,59.17
2018-03-23T15:25:30.678Z,63.93
2018-03-23T15:27:56.933Z,60.37
2018-03-23T15:30:23.163Z,68.23
2018-03-23T15:32:49.454Z,63.80
2018-03-23T15:35:15.716Z,71.07
2018-03-23T15:37:41.919Z,72.37
2018-03-23T15:40:08.242Z,67.67
2018-03-23T15:42:34.581Z,71.07
2018-03-23T15:45:00.882Z,63.53
2018-03-23T15:47:27.110Z,66.30
2018-03-23T15:49:53.415Z,66.33
2018-03-23T15:52:20.365Z,69.73
2018-03-23T15:54:47.337Z,73.80
2018-03-23T15:57:13.563Z,65.50
2018-03-23T15:59:39.775Z,75.27
2018-03-23T16:02:06.872Z,62.37
2018-03-23T16:04:33.820Z,68.13
2018-03-23T16:07:00.054Z,63.27
2018-03-23T16:09:26.274Z,65.70
2018-03-23T16:11:52.538Z,70.53
2018-03-23T16:14:18.746Z,63.70
2018-03-23T16:16:45.015Z,62.50
2018-03-23T16:19:12.003Z,58.67
2018-03-23T16:21:38.229Z,68.40
2018-03-23T16:24:04.573Z,66.07
2018-03-23T16:26:30.863Z,62.20
2018-03-23T16:28:57.319Z,64.27
2018-03-23T16:31:23.615Z,63.27
2018-03-23T16:33:50.802Z,66.33
2018-03-23T16:36:17.023Z,57.03
2018-03-23T16:38:43.245Z,61.87
2018-03-23T16:41:09.769Z,64.70
2018-03-23T16:43:36.948Z,55.67
2018-03-23T16:46:03.233Z,64.10
2018-03-23T16:48:30.199Z,64.67
2018-03-23T16:50:57.386Z,59.70
2018-03-23T16:53:23.611Z,59.97
2018-03-23T16:55:49.854Z,55.13
2018-03-23T16:58:16.082Z,68.20
2018-03-23T17:00:42.782Z,48.50
2018-03-23T17:03:09.036Z,44.03
2018-03-23T17:05:35.474Z,42.63
2018-03-23T17:08:01.703Z,53.60
2018-03-23T17:10:27.981Z,46.63
2018-03-23T17:12:54.982Z,45.23
2018-03-23T17:15:21.248Z,55.83
2018-03-23T17:17:48.249Z,48.30
2018-03-23T17:20:14.520Z,43.50
2018-03-23T17:22:40.719Z,42.83
2018-03-23T17:25:06.986Z,38.87
2018-03-23T17:27:33.264Z,42.63
2018-03-23T17:29:59.742Z,41.13
2018-03-23T17:32:26.013Z,45.97
2018-03-23T17:34:52.291Z,44.03
2018-03-23T17:37:18.516Z,43.30
2018-03-23T17:39:44.790Z,45.03
2018-03-23T17:42:11.271Z,46.87
2018-03-23T17:44:37.529Z,43.00
2018-03-23T17:47:03.769Z,43.27
2018-03-23T17:49:31.110Z,38.03
2018-03-23T17:51:57.468Z,48.30
2018-03-23T17:54:24.462Z,46.37
2018-03-23T17:56:50.844Z,50.43
2018-03-23T17:59:17.811Z,43.53
2018-03-23T18:01:44.300Z,43.30
2018-03-23T18:04:10.910Z,43.47
2018-03-23T18:06:37.207Z,44.47
2018-03-23T18:09:03.479Z,43.23
2018-03-23T18:11:29.712Z,45.57
2018-03-23T18:13:55.957Z,37.80
2018-03-23T18:16:22.190Z,42.23
2018-03-23T18:18:48.411Z,44.97
2018-03-23T18:21:14.722Z,44.83
2018-03-23T18:23:40.965Z,47.30
2018-03-23T18:26:07.204Z,46.90
2018-03-23T18:28:33.413Z,46.87
2018-03-23T18:30:59.670Z,41.40
2018-03-23T18:33:26.784Z,44.87
2018-03-23T18:35:53.041Z,39.80
2018-03-23T18:38:19.735Z,37.30
2018-03-23T18:40:45.997Z,39.90
2018-03-23T18:43:12.278Z,46.93
2018-03-23T18:45:38.628Z,45.00
2018-03-23T18:48:04.849Z,42.20
2018-03-23T18:50:32.423Z,41.83
2018-03-23T18:52:59.214Z,45.10
2018-03-23T18:55:25.413Z,40.90
2018-03-23T18:57:51.632Z,43.53
2018-03-23T19:00:17.871Z,42.30
2018-03-23T19:02:44.132Z,45.73
2018-03-23T19:05:10.710Z,45.00
2018-03-23T19:07:36.931Z,47.13
2018-03-23T19:10:03.187Z,45.90
2018-03-23T19:12:30.152Z,45.90
2018-03-23T19:14:56.455Z,43.90
2018-03-23T19:17:22.787Z,42.40
2018-03-23T19:19:49.021Z,38.83
2018-03-23T19:22:15.351Z,44.87
2018-03-23T19:24:41.559Z,52.33
2018-03-23T19:27:08.021Z,44.73
2018-03-23T19:29:34.238Z,42.73
2018-03-23T19:32:00.587Z,43.27
2018-03-23T19:34:26.825Z,47.60
2018-03-23T19:36:53.849Z,44.53
2018-03-23T19:39:20.124Z,47.60
2018-03-23T19:41:46.864Z,45.87
2018-03-23T19:44:13.182Z,44.23
2018-03-23T19:46:39.421Z,49.50
2018-03-23T19:49:06.534Z,46.30
2018-03-23T19:51:32.825Z,45.27
2018-03-23T19:53:59.778Z,49.60
2018-03-23T19:56:26.014Z,46.10
2018-03-23T19:58:52.242Z,48.77
2018-03-23T20:01:18.681Z,45.57
2018-03-23T20:03:44.918Z,46.57
2018-03-23T20:06:11.151Z,56.53
2018-03-23T20:08:37.375Z,66.33
2018-03-23T20:11:03.594Z,53.00
2018-03-23T20:13:29.850Z,48.40
2018-03-23T20:15:56.102Z,58.40
2018-03-23T20:18:22.345Z,54.70
2018-03-23T20:20:54.570Z,62.53
2018-03-23T20:23:20.922Z,57.70
2018-03-23T20:25:47.147Z,57.57
2018-03-23T20:28:19.442Z,62.77
2018-03-23T20:30:45.990Z,55.77
2018-03-23T20:33:12.941Z,56.30
2018-03-23T20:35:39.992Z,65.13
2018-03-23T20:38:07.331Z,56.63
2018-03-23T20:40:33.547Z,65.43
2018-03-23T20:42:59.980Z,63.77
2018-03-23T20:45:26.218Z,58.97
2018-03-23T20:47:52.520Z,67.13
2018-03-23T20:50:18.770Z,61.60
2018-03-23T20:52:45.046Z,63.23
2018-03-23T20:55:11.413Z,61.10
2018-03-23T20:57:37.710Z,61.80
2018-03-23T21:00:03.999Z,58.73
2018-03-23T21:02:30.238Z,58.20
2018-03-23T21:04:56.456Z,53.37
2018-03-23T21:07:22.699Z,57.00
2018-03-23T21:09:48.902Z,62.40
2018-03-23T21:12:15.130Z,58.27
2018-03-23T21:14:41.382Z,58.83
2018-03-23T21:17:07.601Z,60.03
2018-03-23T21:19:33.856Z,62.47
2018-03-23T21:22:00.827Z,57.40
2018-03-23T21:24:27.047Z,59.23
2018-03-23T21:26:53.251Z,66.10
2018-03-23T21:29:20.239Z,56.53
2018-03-23T21:31:46.562Z,58.40
2018-03-23T21:34:12.883Z,63.30
2018-03-23T21:36:39.109Z,59.20
2018-03-23T21:39:05.399Z,65.53
2018-03-23T21:41:31.694Z,61.57
2018-03-23T21:43:57.948Z,69.37
2018-03-23T21:46:24.919Z,60.10
2018-03-23T21:48:51.241Z,55.80
2018-03-23T21:51:17.461Z,68.93
2018-03-23T21:53:44.115Z,70.13
2018-03-23T21:56:10.712Z,57.87
2018-03-23T21:58:36.922Z,70.73
2018-03-23T22:01:03.302Z,63.90
2018-03-23T22:03:29.560Z,67.27
2018-03-23T22:05:56.702Z,66.77
2018-03-23T22:08:23.717Z,68.60
2018-03-23T22:10:49.933Z,71.57
2018-03-23T22:13:16.223Z,59.47
2018-03-23T22:15:42.446Z,64.37
2018-03-23T22:18:09.461Z,72.83
2018-03-23T22:20:35.720Z,64.80
2018-03-23T22:23:02.693Z,73.60
2018-03-23T22:25:28.934Z,75.80
2018-03-23T22:27:55.140Z,67.77
2018-03-23T22:30:21.418Z,68.40
2018-03-23T22:32:47.748Z,59.80
2018-03-23T22:35:13.952Z,80.20
2018-03-23T22:37:40.226Z,78.90
2018-03-23T22:40:06.862Z,67.37
2018-03-23T22:42:33.143Z,76.23
2018-03-23T22:44:59.382Z,77.97
2018-03-23T22:47:25.602Z,67.20
2018-03-23T22:49:51.815Z,66.50
2018-03-23T22:52:18.089Z,79.17
2018-03-23T22:54:44.299Z,75.67
2018-03-23T22:57:10.769Z,67.30
2018-03-23T22:59:37.007Z,74.17
2018-03-23T23:02:03.251Z,76.67
2018-03-23T23:04:30.300Z,72.33
2018-03-23T23:06:57.283Z,75.30
2018-03-23T23:09:23.530Z,72.17
2018-03-23T23:11:49.750Z,70.80
2018-03-23T23:14:15.966Z,71.87
2018-03-23T23:16:42.195Z,74.77
2018-03-23T23:19:08.439Z,69.53
2018-03-23T23:21:34.686Z,84.67
2018-03-23T23:24:00.938Z,73.37
2018-03-23T23:26:28.006Z,72.17
2018-03-23T23:28:54.281Z,82.70
2018-03-23T23:31:20.501Z,73.80
2018-03-23T23:33:46.710Z,75.73
2018-03-23T23:36:13.044Z,77.47
2018-03-23T23:38:39.297Z,76.40
2018-03-23T23:41:05.590Z,70.83
2018-03-23T23:43:31.801Z,64.80
2018-03-23T23:45:58.046Z,71.00
2018-03-23T23:48:24.262Z,65.20
2018-03-23T23:50:51.313Z,80.10
2018-03-23T23:53:18.362Z,80.00
2018-03-23T23:55:45.305Z,78.07
2018-03-23T23:58:12.251Z,71.13
